Time;durP1;ratioP1;P1;durP2;ratioP2;P2;SDS_P1;SDS_P2;PMS_P1;PMS_P2;Temp;Humidity;BMP_temperature;BMP_pressure;BME280_temperature;BME280_humidity;BME280_pressure;Samples;Min_cycle;Max_cycle;Signal;HPM_P1;HPM_P2
2023/09/19 00:01:08;;;;;;;3.15;1.58;;;23.40;38.40;;;;;;7399533;19;19930;-71
2023/09/19 00:03:38;;;;;;;4.88;1.77;;;23.30;38.20;;;;;;7400597;19;19942;-71
2023/09/19 00:06:07;;;;;;;4.40;1.65;;;23.30;38.20;;;;;;7398268;19;19919;-70
2023/09/19 00:08:33;;;;;;;3.67;1.63;;;23.30;38.40;;;;;;7399842;19;19922;-71
2023/09/19 00:11:05;;;;;;;3.83;1.63;;;23.20;38.40;;;;;;7396004;19;19914;-71
2023/09/19 00:13:32;;;;;;;4.50;1.55;;;23.20;38.60;;;;;;7401241;19;19926;-72
2023/09/19 00:15:58;;;;;;;;;;;23.30;38.20;;;;;;7403230;19;20171;-71
2023/09/19 00:18:32;;;;;;;3.25;1.55;;;23.30;38.00;;;;;;7400584;19;20027;-71
2023/09/19 00:21:01;;;;;;;5.25;1.70;;;23.30;37.80;;;;;;7398785;19;19921;-71
2023/09/19 00:23:28;;;;;;;4.18;1.30;;;23.30;37.80;;;;;;7399916;19;20274;-71
2023/09/19 00:25:57;;;;;;;3.30;1.50;;;23.30;37.90;;;;;;7401548;19;19963;-70
2023/09/19 00:28:23;;;;;;;4.13;1.30;;;23.30;37.70;;;;;;7396033;19;19945;-71
2023/09/19 00:30:51;;;;;;;3.22;1.50;;;23.30;37.50;;;;;;7400816;19;20331;-72
2023/09/19 00:33:19;;;;;;;2.78;0.93;;;23.30;37.60;;;;;;7398882;19;20251;-71
2023/09/19 00:35:49;;;;;;;3.00;1.38;;;23.30;37.70;;;;;;7400338;19;19926;-71
2023/09/19 00:38:21;;;;;;;2.40;1.15;;;23.30;36.90;;;;;;7398236;19;19941;-71
2023/09/19 00:40:47;;;;;;;4.63;1.58;;;23.30;36.70;;;;;;7397971;19;19922;-70
2023/09/19 00:43:13;;;;;;;5.63;1.83;;;23.40;37.00;;;;;;7398409;19;19920;-70
2023/09/19 00:45:43;;;;;;;3.63;1.52;;;23.30;37.10;;;;;;7400210;19;20347;-71
2023/09/19 00:48:10;;;;;;;3.28;1.35;;;23.20;37.40;;;;;;7397302;19;19919;-71
2023/09/19 00:50:36;;;;;;;5.28;1.90;;;23.20;37.50;;;;;;7400629;19;19918;-72
2023/09/19 00:53:07;;;;;;;2.72;1.08;;;23.20;37.70;;;;;;7396549;19;20267;-71
2023/09/19 00:55:35;;;;;;;4.20;1.52;;;23.20;38.00;;;;;;7399152;19;19911;-72
2023/09/19 00:58:01;;;;;;;3.53;1.75;;;23.20;38.20;;;;;;7398955;19;19922;-72
2023/09/19 01:00:28;;;;;;;3.58;1.30;;;23.20;38.20;;;;;;7397860;19;20312;-71
2023/09/19 01:02:55;;;;;;;3.25;1.10;;;23.10;38.20;;;;;;7398325;19;20228;-71
2023/09/19 01:05:23;;;;;;;4.25;1.80;;;23.10;38.40;;;;;;7400522;19;19910;-71
2023/09/19 01:07:49;;;;;;;4.55;2.00;;;23.10;38.90;;;;;;7399261;19;19974;-70
2023/09/19 01:10:19;;;;;;;5.35;1.70;;;23.00;39.10;;;;;;7398021;19;19939;-70
2023/09/19 01:12:58;;;;;;;4.68;2.10;;;23.00;39.50;;;;;;7399827;19;19943;-70
2023/09/19 01:15:46;;;;;;;3.90;1.48;;;23.00;39.80;;;;;;7398947;19;19982;-71
2023/09/19 01:18:20;;;;;;;4.75;1.75;;;23.00;40.50;;;;;;7398479;19;19910;-71
2023/09/19 01:21:21;;;;;;;3.95;1.48;;;23.00;41.30;;;;;;7398134;19;19918;-71
2023/09/19 01:24:08;;;;;;;5.45;2.15;;;23.10;41.90;;;;;;7402356;19;19930;-72
2023/09/19 01:27:01;;;;;;;5.57;2.10;;;23.00;42.40;;;;;;7403016;19;19986;-71
2023/09/19 01:29:32;;;;;;;4.93;1.80;;;23.00;43.10;;;;;;7403790;19;19926;-71
2023/09/19 01:32:04;;;;;;;3.63;2.00;;;23.00;43.60;;;;;;7404269;19;19916;-72
2023/09/19 01:35:03;;;;;;;5.30;1.70;;;23.00;44.20;;;;;;7379965;19;20382;-71
2023/09/19 01:37:31;;;;;;;4.85;2.42;;;23.00;44.90;;;;;;7402842;19;20378;-71
2023/09/19 01:40:19;;;;;;;3.45;1.60;;;23.00;45.60;;;;;;7404036;19;19906;-72
2023/09/19 01:43:17;;;;;;;4.30;1.92;;;22.90;46.10;;;;;;7403278;19;20354;-71
2023/09/19 01:46:01;;;;;;;4.32;2.17;;;22.80;47.00;;;;;;7412203;19;19942;-73
2023/09/19 01:49:22;;;;;;;5.38;1.90;;;22.80;47.70;;;;;;7408840;19;19986;-72
2023/09/19 01:51:53;;;;;;;5.38;2.25;;;22.80;49.10;;;;;;7408863;19;19974;-73
2023/09/19 01:54:27;;;;;;;13.98;1.95;;;22.80;50.40;;;;;;7412643;19;20354;-73
2023/09/19 01:57:35;;;;;;;5.57;2.08;;;22.80;51.20;;;;;;7412772;19;19923;-72
2023/09/19 02:00:08;;;;;;;5.60;2.72;;;22.70;51.70;;;;;;7409307;19;19930;-73
2023/09/19 02:02:40;;;;;;;4.82;2.20;;;22.80;52.40;;;;;;7412118;19;19914;-72
2023/09/19 02:05:06;;;;;;;4.88;2.25;;;22.60;52.80;;;;;;7413403;19;19982;-73
2023/09/19 02:07:33;;;;;;;5.53;2.15;;;22.50;53.80;;;;;;7415456;19;19922;-73
2023/09/19 02:10:05;;;;;;;4.85;1.98;;;22.50;55.00;;;;;;7408794;19;19915;-73
2023/09/19 02:12:32;;;;;;;5.97;2.22;;;22.50;56.10;;;;;;7408377;19;19923;-72
2023/09/19 02:14:59;;;;;;;4.55;1.95;;;22.50;56.70;;;;;;7410957;19;19923;-72
2023/09/19 02:17:28;;;;;;;7.10;2.30;;;22.40;57.20;;;;;;7406424;19;19918;-73
2023/09/19 02:19:56;;;;;;;7.43;1.85;;;22.40;57.90;;;;;;7407488;19;19937;-72
2023/09/19 02:22:22;;;;;;;4.55;2.25;;;22.30;58.40;;;;;;7408542;19;19922;-72
2023/09/19 02:24:48;;;;;;;5.57;2.05;;;22.30;59.00;;;;;;7409695;19;19923;-72
2023/09/19 02:27:16;;;;;;;4.55;2.13;;;22.40;59.70;;;;;;7411809;19;19915;-73
2023/09/19 02:29:42;;;;;;;6.40;2.38;;;22.40;59.40;;;;;;7413513;19;19950;-72
2023/09/19 02:32:09;;;;;;;6.20;2.25;;;22.60;59.00;;;;;;7410020;19;20751;-73
2023/09/19 02:34:36;;;;;;;6.00;2.33;;;22.70;58.90;;;;;;7413071;19;20039;-72
2023/09/19 02:37:04;;;;;;;6.32;2.17;;;22.70;58.50;;;;;;7411252;19;19919;-73
2023/09/19 02:39:31;;;;;;;5.28;2.28;;;22.70;58.40;;;;;;7410229;19;19922;-72
2023/09/19 02:41:57;;;;;;;6.72;2.38;;;22.70;59.20;;;;;;7407871;19;19919;-72
2023/09/19 02:44:23;;;;;;;5.00;1.88;;;22.80;58.80;;;;;;7407337;19;20626;-73
2023/09/19 02:46:49;;;;;;;;;;;22.80;59.00;;;;;;7410847;19;19978;-73
2023/09/19 02:49:15;;;;;;;5.85;2.35;;;22.70;59.40;;;;;;7406990;19;19960;-73
2023/09/19 02:51:41;;;;;;;6.63;2.60;;;22.70;60.80;;;;;;7409953;19;19922;-73
2023/09/19 02:54:07;;;;;;;6.13;2.15;;;22.70;61.20;;;;;;7409774;19;20027;-72
2023/09/19 02:56:35;;;;;;;7.25;2.40;;;22.70;63.50;;;;;;7406310;19;20331;-72
2023/09/19 02:59:01;;;;;;;6.18;2.30;;;22.70;62.70;;;;;;7387377;19;20021;-74
2023/09/19 03:01:28;;;;;;;7.53;2.28;;;22.70;65.30;;;;;;7408362;19;19978;-72
2023/09/19 03:03:54;;;;;;;7.18;2.25;;;22.70;65.90;;;;;;7407710;19;20553;-73
2023/09/19 03:06:21;;;;;;;;;;;22.70;68.00;;;;;;7411649;19;19978;-72
2023/09/19 03:08:48;;;;;;;5.28;2.00;;;22.60;69.00;;;;;;7410211;19;19939;-73
2023/09/19 03:11:16;;;;;;;6.55;2.05;;;22.60;69.20;;;;;;7413111;19;19925;-73
2023/09/19 03:13:42;;;;;;;6.03;2.28;;;22.60;70.90;;;;;;7414131;19;19930;-74
2023/09/19 03:16:08;;;;;;;6.90;2.42;;;22.60;70.40;;;;;;7413865;19;19932;-72
2023/09/19 03:18:34;;;;;;;7.22;2.28;;;22.60;72.80;;;;;;7415221;19;19911;-72
2023/09/19 03:21:01;;;;;;;10.15;2.47;;;22.60;74.70;;;;;;7414295;19;20347;-72
2023/09/19 03:23:27;;;;;;;12.35;2.63;;;22.60;75.10;;;;;;7411019;19;19938;-73
2023/09/19 03:25:58;;;;;;;9.77;1.92;;;22.60;76.40;;;;;;7415405;19;20277;-74
2023/09/19 03:28:24;;;;;;;6.82;2.88;;;22.60;77.20;;;;;;7412590;19;20563;-74
2023/09/19 03:31:00;;;;;;;9.50;1.88;;;22.60;78.40;;;;;;7413614;19;20525;-74
2023/09/19 03:33:26;;;;;;;8.00;1.80;;;22.60;80.00;;;;;;7412338;19;19922;-73
2023/09/19 03:35:55;;;;;;;7.90;2.53;;;22.70;81.30;;;;;;7415172;19;20375;-72
2023/09/19 03:38:21;;;;;;;10.43;1.70;;;22.60;82.80;;;;;;7412004;19;19922;-73
2023/09/19 03:40:48;;;;;;;6.85;1.95;;;22.70;84.40;;;;;;7414432;19;19923;-73
2023/09/19 03:43:14;;;;;;;7.13;2.30;;;22.70;84.80;;;;;;7410321;19;19902;-73
2023/09/19 03:45:40;;;;;;;5.78;1.83;;;22.60;85.00;;;;;;7411446;19;19919;-73
2023/09/19 03:48:10;;;;;;;5.45;1.83;;;22.60;85.00;;;;;;7410058;19;19919;-72
2023/09/19 03:50:36;;;;;;;7.72;2.30;;;22.70;86.20;;;;;;7415453;19;19922;-73
2023/09/19 03:53:03;;;;;;;10.02;1.70;;;22.70;86.80;;;;;;7409108;19;19919;-73
2023/09/19 03:55:32;;;;;;;10.07;2.20;;;22.60;87.00;;;;;;7407863;19;19922;-72
2023/09/19 03:57:58;;;;;;;8.48;1.90;;;22.60;87.60;;;;;;7408683;19;19927;-72
2023/09/19 04:00:26;;;;;;;7.50;2.35;;;22.60;87.80;;;;;;7399327;19;19922;-72
2023/09/19 04:02:52;;;;;;;9.27;2.40;;;22.60;88.20;;;;;;7399393;19;20366;-72
2023/09/19 04:05:19;;;;;;;9.18;2.20;;;22.60;88.50;;;;;;7398395;19;19907;-72
2023/09/19 04:07:45;;;;;;;11.98;2.88;;;22.60;89.80;;;;;;7398499;19;19922;-73
2023/09/19 04:10:14;;;;;;;7.15;2.30;;;22.50;90.00;;;;;;7400472;19;19948;-73
2023/09/19 04:12:40;;;;;;;12.13;2.38;;;22.60;90.40;;;;;;7398972;19;20413;-72
2023/09/19 04:15:07;;;;;;;6.20;1.70;;;22.60;90.70;;;;;;7397106;19;19986;-72
2023/09/19 04:17:33;;;;;;;;;;;22.50;91.00;;;;;;7403349;19;20568;-72
2023/09/19 04:19:59;;;;;;;7.75;2.72;;;22.50;90.80;;;;;;7402967;19;19999;-72
2023/09/19 04:22:25;;;;;;;9.52;2.10;;;22.60;90.90;;;;;;7397533;19;19918;-72
2023/09/19 04:24:51;;;;;;;9.80;1.67;;;22.50;91.10;;;;;;7400988;19;20265;-72
2023/09/19 04:27:18;;;;;;;8.00;2.42;;;22.50;91.10;;;;;;7400685;19;19939;-72
2023/09/19 04:29:44;;;;;;;8.93;2.63;;;22.50;91.20;;;;;;7399786;19;19911;-72
2023/09/19 04:32:10;;;;;;;8.02;2.08;;;22.50;91.30;;;;;;7401946;19;19938;-72
2023/09/19 04:34:38;;;;;;;8.23;2.00;;;22.50;91.50;;;;;;7402069;19;19914;-72
2023/09/19 04:37:04;;;;;;;9.23;2.22;;;22.50;91.60;;;;;;7401105;19;19925;-73
2023/09/19 04:39:30;;;;;;;9.70;2.58;;;22.50;91.60;;;;;;7399843;19;19941;-72
2023/09/19 04:41:56;;;;;;;10.45;2.30;;;22.50;91.80;;;;;;7402454;19;19919;-72
2023/09/19 04:44:22;;;;;;;;;;;22.50;91.50;;;;;;7399517;19;19934;-72
2023/09/19 04:46:48;;;;;;;11.65;2.70;;;22.40;91.40;;;;;;7394413;19;19919;-72
2023/09/19 04:49:14;;;;;;;9.38;2.13;;;22.50;91.60;;;;;;7375803;19;19911;-72
2023/09/19 04:51:40;;;;;;;10.32;3.40;;;22.40;91.70;;;;;;7396199;19;19929;-72
2023/09/19 04:54:07;;;;;;;10.43;2.53;;;22.40;91.80;;;;;;7396345;19;19921;-72
2023/09/19 04:56:33;;;;;;;9.75;2.58;;;22.40;92.00;;;;;;7396462;19;19915;-72
2023/09/19 04:58:59;;;;;;;10.27;2.40;;;22.40;92.00;;;;;;7396653;19;21216;-72
2023/09/19 05:01:26;;;;;;;9.43;2.28;;;22.40;92.00;;;;;;7373029;19;19919;-72
2023/09/19 05:03:52;;;;;;;8.38;2.33;;;22.40;92.00;;;;;;7398904;19;19918;-72
2023/09/19 05:06:20;;;;;;;9.38;2.13;;;22.40;91.90;;;;;;7399742;19;20173;-72
2023/09/19 05:08:52;;;;;;;8.05;1.95;;;22.40;91.90;;;;;;7395346;19;19919;-72
2023/09/19 05:11:22;;;;;;;7.55;1.75;;;22.40;92.10;;;;;;7401776;19;19919;-73
2023/09/19 05:13:55;;;;;;;9.02;2.25;;;22.40;92.20;;;;;;7401178;19;19932;-72
2023/09/19 05:16:21;;;;;;;9.20;2.00;;;22.40;92.20;;;;;;7398770;19;19938;-72
2023/09/19 05:18:47;;;;;;;8.30;1.80;;;22.30;92.10;;;;;;7400338;19;20345;-73
2023/09/19 05:21:13;;;;;;;5.50;1.50;;;22.30;92.20;;;;;;7398443;19;19919;-72
2023/09/19 05:23:39;;;;;;;9.68;2.58;;;22.30;92.10;;;;;;7401755;19;19919;-71
2023/09/19 05:26:05;;;;;;;7.35;2.30;;;22.40;92.20;;;;;;7375743;19;19923;-72
2023/09/19 05:28:32;;;;;;;11.43;2.47;;;22.40;92.10;;;;;;7399709;19;19922;-72
2023/09/19 05:31:02;;;;;;;10.23;2.42;;;22.50;91.90;;;;;;7396227;19;19919;-72
2023/09/19 05:33:28;;;;;;;10.43;1.80;;;22.50;91.70;;;;;;7400140;19;20296;-74
2023/09/19 05:35:53;;;;;;;11.77;2.53;;;22.50;91.50;;;;;;7399055;19;19936;-72
2023/09/19 05:38:20;;;;;;;11.13;2.15;;;22.50;91.40;;;;;;7399690;19;19914;-72
2023/09/19 05:40:46;;;;;;;7.25;1.88;;;22.60;91.30;;;;;;7399963;19;19939;-72
2023/09/19 05:43:14;;;;;;;8.98;2.05;;;22.50;91.10;;;;;;7389068;19;19925;-72
2023/09/19 05:45:40;;;;;;;7.15;2.60;;;22.50;91.10;;;;;;7398669;19;20335;-72
2023/09/19 05:48:15;;;;;;;12.48;2.30;;;22.50;91.10;;;;;;7395577;19;19932;-72
2023/09/19 05:50:42;;;;;;;11.68;1.90;;;22.50;90.90;;;;;;7399785;19;19926;-72
2023/09/19 05:53:14;;;;;;;10.05;2.53;;;22.50;91.00;;;;;;7398452;19;19919;-71
2023/09/19 05:55:40;;;;;;;6.88;2.17;;;22.50;90.90;;;;;;7396687;19;19919;-73
2023/09/19 05:58:07;;;;;;;11.13;2.53;;;22.60;90.70;;;;;;7398068;19;19939;-72
2023/09/19 06:00:32;;;;;;;7.82;2.20;;;22.60;90.80;;;;;;7399972;19;19918;-71
2023/09/19 06:02:59;;;;;;;9.50;1.90;;;22.50;90.60;;;;;;7399240;19;19915;-72
2023/09/19 06:05:26;;;;;;;9.50;2.80;;;22.50;90.70;;;;;;7395424;19;19914;-72
2023/09/19 06:07:52;;;;;;;9.93;2.65;;;22.50;90.90;;;;;;7394983;19;19926;-73
2023/09/19 06:10:20;;;;;;;7.75;2.42;;;22.50;91.00;;;;;;7402262;19;20038;-72
2023/09/19 06:12:48;;;;;;;10.70;2.30;;;22.40;91.00;;;;;;7405078;19;19910;-72
2023/09/19 06:15:18;;;;;;;8.98;2.33;;;22.50;91.10;;;;;;7404239;19;20250;-73
2023/09/19 06:17:55;;;;;;;13.55;2.80;;;22.50;91.00;;;;;;7406952;19;20331;-72
2023/09/19 06:20:22;;;;;;;10.35;2.47;;;22.50;91.10;;;;;;7404361;19;19950;-72
2023/09/19 06:22:48;;;;;;;8.57;2.75;;;22.50;91.00;;;;;;7403633;19;20432;-73
2023/09/19 06:25:19;;;;;;;17.98;3.20;;;22.50;90.80;;;;;;7403236;19;19922;-73
2023/09/19 06:27:51;;;;;;;11.05;3.00;;;22.60;90.60;;;;;;7405255;19;20264;-73
2023/09/19 06:30:18;;;;;;;19.63;4.18;;;22.70;90.40;;;;;;7404869;19;20258;-72
2023/09/19 06:32:44;;;;;;;12.63;2.72;;;22.80;90.20;;;;;;7402410;19;19929;-73
2023/09/19 06:35:11;;;;;;;11.43;2.97;;;22.90;89.80;;;;;;7401015;19;19970;-72
2023/09/19 06:37:40;;;;;;;11.98;3.15;;;23.00;89.20;;;;;;7402935;19;20355;-73
2023/09/19 06:40:14;;;;;;;11.48;2.47;;;23.00;88.60;;;;;;7401352;19;19914;-73
2023/09/19 06:42:47;;;;;;;9.70;2.47;;;23.10;88.30;;;;;;7402877;19;19926;-72
2023/09/19 06:45:17;;;;;;;12.32;3.40;;;23.20;87.90;;;;;;7399364;19;19926;-72
2023/09/19 06:47:50;;;;;;;11.80;3.33;;;23.20;87.40;;;;;;7402499;19;19914;-72
2023/09/19 06:50:20;;;;;;;13.48;2.97;;;23.30;87.10;;;;;;7359387;19;19923;-73
2023/09/19 06:52:50;;;;;;;10.52;2.30;;;23.20;87.10;;;;;;7402048;19;20276;-73
2023/09/19 06:55:19;;;;;;;9.48;2.60;;;23.20;87.00;;;;;;7403950;19;19922;-73
2023/09/19 06:57:45;;;;;;;10.63;2.75;;;23.30;86.40;;;;;;7402025;19;19927;-72
2023/09/19 07:00:18;;;;;;;7.88;2.50;;;23.30;86.30;;;;;;7402966;19;19922;-72
2023/09/19 07:03:11;;;;;;;11.43;2.78;;;23.30;86.00;;;;;;7400274;19;19953;-72
2023/09/19 07:05:42;;;;;;;8.55;2.58;;;23.30;85.40;;;;;;7401717;19;19934;-73
2023/09/19 07:08:12;;;;;;;8.43;2.33;;;23.40;85.40;;;;;;7400139;19;19978;-73
2023/09/19 07:10:48;;;;;;;9.75;3.15;;;23.50;84.40;;;;;;7401549;19;19922;-72
2023/09/19 07:13:16;;;;;;;11.85;3.60;;;23.50;84.00;;;;;;7401638;19;19910;-73
2023/09/19 07:15:46;;;;;;;8.68;3.40;;;23.40;84.90;;;;;;7402466;19;19923;-73
2023/09/19 07:18:16;;;;;;;7.55;2.88;;;23.60;84.10;;;;;;7402314;19;19945;-73
2023/09/19 07:20:49;;;;;;;8.95;2.78;;;23.70;82.60;;;;;;7403945;19;19942;-72
2023/09/19 07:23:19;;;;;;;10.73;2.78;;;23.70;82.60;;;;;;7400939;19;19918;-72
2023/09/19 07:25:46;;;;;;;9.18;2.88;;;23.70;81.90;;;;;;7404189;19;19925;-72
2023/09/19 07:28:12;;;;;;;12.27;3.92;;;23.80;81.90;;;;;;7395831;19;19922;-72
2023/09/19 07:30:39;;;;;;;7.93;2.83;;;23.80;81.90;;;;;;7401596;19;19918;-72
2023/09/19 07:33:05;;;;;;;7.93;2.58;;;23.80;81.10;;;;;;7399572;19;19925;-72
2023/09/19 07:35:31;;;;;;;;;;;23.90;79.60;;;;;;7403219;19;19946;-72
2023/09/19 07:38:01;;;;;;;9.52;2.97;;;23.90;78.40;;;;;;7399025;19;20284;-72
2023/09/19 07:40:28;;;;;;;13.35;2.95;;;24.00;77.50;;;;;;7402967;19;19991;-73
2023/09/19 07:43:01;;;;;;;11.68;3.03;;;24.10;78.30;;;;;;7400875;19;19915;-72
2023/09/19 07:45:30;;;;;;;11.52;2.90;;;24.20;78.10;;;;;;7400013;19;19919;-73
2023/09/19 07:47:56;;;;;;;9.38;2.83;;;24.20;74.90;;;;;;7400297;19;19911;-73
2023/09/19 07:50:23;;;;;;;11.80;2.72;;;24.00;75.20;;;;;;7402148;19;20148;-73
2023/09/19 07:52:53;;;;;;;12.65;3.15;;;24.10;75.60;;;;;;7401089;19;19929;-73
2023/09/19 07:55:24;;;;;;;9.20;3.17;;;24.20;75.10;;;;;;7379058;19;19921;-73
2023/09/19 07:57:50;;;;;;;10.02;3.53;;;24.30;75.50;;;;;;7402425;19;19918;-74
2023/09/19 08:00:16;;;;;;;13.57;3.03;;;24.50;73.80;;;;;;7400394;19;20359;-73
2023/09/19 08:02:43;;;;;;;7.57;2.50;;;24.60;72.80;;;;;;7402197;19;19954;-72
2023/09/19 08:05:11;;;;;;;6.55;2.72;;;24.90;71.70;;;;;;7400226;19;19911;-73
2023/09/19 08:07:38;;;;;;;10.18;2.90;;;25.10;70.30;;;;;;7402713;19;19935;-73
2023/09/19 08:10:11;;;;;;;7.47;2.67;;;25.10;69.40;;;;;;7390791;19;19922;-73
2023/09/19 08:12:37;;;;;;;10.15;2.60;;;25.00;69.30;;;;;;7403041;19;20575;-72
2023/09/19 08:15:05;;;;;;;9.02;2.75;;;24.70;70.50;;;;;;7401616;19;19982;-73
2023/09/19 08:17:37;;;;;;;10.50;3.55;;;24.60;72.10;;;;;;7399670;19;19925;-73
2023/09/19 08:20:05;;;;;;;14.43;3.53;;;24.80;71.40;;;;;;7394930;19;19922;-73
2023/09/19 08:22:34;;;;;;;9.32;3.08;;;24.80;71.50;;;;;;7375020;19;19910;-72
2023/09/19 08:25:04;;;;;;;9.85;3.20;;;24.80;71.60;;;;;;7372292;19;19983;-72
2023/09/19 08:27:30;;;;;;;10.43;2.90;;;24.90;70.80;;;;;;7379211;19;20240;-73
2023/09/19 08:29:56;;;;;;;10.48;3.25;;;24.90;70.40;;;;;;7388901;19;20297;-72
2023/09/19 08:32:24;;;;;;;8.13;2.95;;;25.10;69.80;;;;;;7379683;19;19923;-73
2023/09/19 08:34:50;;;;;;;7.40;3.30;;;25.00;70.80;;;;;;7397026;19;19914;-73
2023/09/19 08:37:18;;;;;;;11.13;3.47;;;25.20;69.40;;;;;;7372206;19;19922;-72
2023/09/19 08:39:44;;;;;;;10.88;3.20;;;25.20;68.50;;;;;;7376368;19;19930;-72
2023/09/19 08:42:11;;;;;;;;;;;25.40;67.60;;;;;;7379899;19;19926;-73
2023/09/19 08:44:40;;;;;;;9.40;3.00;;;25.60;67.60;;;;;;7380042;19;19918;-73
2023/09/19 08:47:14;;;;;;;9.32;3.38;;;25.80;66.00;;;;;;7376723;19;20263;-72
2023/09/19 08:50:12;;;;;;;11.10;3.22;;;26.00;66.10;;;;;;7383643;19;19919;-73
2023/09/19 08:52:42;;;;;;;10.75;3.95;;;26.00;64.60;;;;;;7373181;19;19923;-72
2023/09/19 08:55:13;;;;;;;13.38;3.22;;;26.60;63.60;;;;;;7377448;19;19939;-72
2023/09/19 08:57:42;;;;;;;41.08;6.93;;;27.00;60.00;;;;;;7395915;19;19927;-73
2023/09/19 09:00:12;;;;;;;79.55;11.10;;;26.50;61.20;;;;;;7377460;19;19924;-72
2023/09/19 09:02:43;;;;;;;13.35;3.83;;;26.40;62.00;;;;;;7371400;19;22002;-73
2023/09/19 09:05:12;;;;;;;11.75;3.42;;;26.80;60.50;;;;;;7368719;19;19914;-73
2023/09/19 09:07:40;;;;;;;10.00;3.35;;;26.50;60.80;;;;;;7379048;19;19906;-72
2023/09/19 09:10:07;;;;;;;10.95;3.65;;;25.90;62.20;;;;;;7372393;19;19921;-73
2023/09/19 09:12:41;;;;;;;8.93;3.05;;;25.90;62.90;;;;;;7375444;19;19910;-74
2023/09/19 09:15:08;;;;;;;10.77;4.15;;;26.60;61.70;;;;;;7371599;19;19918;-73
2023/09/19 09:17:34;;;;;;;17.63;5.10;;;26.90;60.10;;;;;;7369961;19;19934;-72
2023/09/19 09:20:00;;;;;;;13.90;3.95;;;26.80;58.60;;;;;;7371158;19;20041;-74
2023/09/19 09:22:26;;;;;;;15.18;3.65;;;26.50;59.70;;;;;;7375419;19;20803;-75
2023/09/19 09:25:06;;;;;;;14.38;3.95;;;27.20;58.90;;;;;;7374647;19;19923;-73
2023/09/19 09:27:34;;;;;;;10.82;3.42;;;27.20;57.90;;;;;;7371061;19;19926;-72
2023/09/19 09:29:59;;;;;;;9.70;3.42;;;27.50;56.20;;;;;;7377596;19;19967;-72
2023/09/19 09:32:29;;;;;;;10.70;3.30;;;28.20;53.00;;;;;;7381299;19;19929;-72
2023/09/19 09:34:57;;;;;;;9.38;3.47;;;28.10;52.50;;;;;;7369144;19;19970;-72
2023/09/19 09:37:29;;;;;;;7.90;3.47;;;29.50;51.20;;;;;;7377564;19;19926;-73
2023/09/19 09:39:58;;;;;;;11.90;4.40;;;31.00;46.60;;;;;;7371274;19;20022;-73
2023/09/19 09:42:35;;;;;;;10.75;4.68;;;30.60;44.40;;;;;;7370558;19;19925;-72
2023/09/19 09:45:14;;;;;;;6.65;3.22;;;30.30;44.10;;;;;;7399452;19;20266;-73
2023/09/19 09:47:56;;;;;;;20.77;4.63;;;30.00;44.00;;;;;;7387102;19;19907;-74
2023/09/19 09:51:18;;;;;;;6.85;3.00;;;29.60;43.50;;;;;;7375766;19;19967;-72
2023/09/19 09:53:32;;;;;;;11.25;3.13;;;28.70;45.90;;;;;;7387919;19;19966;-74
2023/09/19 09:56:07;;;;;;;7.18;3.92;;;29.20;46.60;;;;;;7395424;19;19930;-74
2023/09/19 09:58:54;;;;;;;8.10;3.17;;;28.90;47.00;;;;;;7403832;19;19919;-72
2023/09/19 10:01:20;;;;;;;14.57;3.50;;;27.90;48.60;;;;;;7395578;19;20894;-75
2023/09/19 10:03:49;;;;;;;13.52;3.85;;;27.50;49.20;;;;;;7402943;19;19910;-73
2023/09/19 10:09:11;;;;;;;9.90;3.17;;;28.00;49.70;;;;;;7404955;19;19927;-73
2023/09/19 10:11:46;;;;;;;5.55;2.83;;;27.50;48.90;;;;;;7404763;19;19935;-73
2023/09/19 10:14:14;;;;;;;10.98;3.67;;;27.40;47.20;;;;;;7402818;19;19942;-73
2023/09/19 10:16:51;;;;;;;9.52;3.08;;;27.30;49.20;;;;;;7402091;19;19949;-73
2023/09/19 10:19:46;;;;;;;12.70;3.03;;;27.20;50.40;;;;;;7402442;19;19935;-73
2023/09/19 10:22:20;;;;;;;9.27;3.50;;;27.40;50.20;;;;;;7403365;19;19929;-73
2023/09/19 10:24:50;;;;;;;12.10;3.75;;;27.20;49.90;;;;;;7403094;19;19922;-72
2023/09/19 10:27:17;;;;;;;13.95;4.45;;;27.40;50.20;;;;;;7401591;19;19928;-73
2023/09/19 10:29:47;;;;;;;10.73;3.70;;;27.00;52.00;;;;;;7404796;19;19930;-73
2023/09/19 10:32:18;;;;;;;16.92;4.40;;;27.40;49.80;;;;;;7402973;19;19921;-73
2023/09/19 10:34:46;;;;;;;11.63;4.07;;;27.30;51.70;;;;;;7406136;19;20007;-73
2023/09/19 10:37:14;;;;;;;8.80;4.07;;;26.90;52.50;;;;;;7403449;19;19922;-74
2023/09/19 10:39:41;;;;;;;10.05;3.80;;;27.90;49.10;;;;;;7402776;19;19922;-73
2023/09/19 10:42:10;;;;;;;9.80;4.28;;;28.00;49.10;;;;;;7400950;19;19914;-72
2023/09/19 10:44:43;;;;;;;11.25;3.58;;;28.10;48.40;;;;;;7402382;19;19958;-73
2023/09/19 10:47:10;;;;;;;7.63;3.13;;;28.20;48.40;;;;;;7403721;19;19923;-74
2023/09/19 10:49:43;;;;;;;11.40;3.95;;;28.10;47.20;;;;;;7401928;19;19918;-76
2023/09/19 10:52:13;;;;;;;9.30;4.47;;;28.50;49.30;;;;;;7403633;19;20350;-73
2023/09/19 10:54:41;;;;;;;13.05;5.07;;;28.50;50.60;;;;;;7401204;19;19946;-75
2023/09/19 10:57:09;;;;;;;14.68;4.82;;;29.20;49.30;;;;;;7403348;19;19922;-75
2023/09/19 10:59:35;;;;;;;10.25;3.60;;;29.00;48.20;;;;;;7402667;19;20270;-72
2023/09/19 11:02:17;;;;;;;9.73;3.70;;;28.00;49.60;;;;;;7404194;19;19986;-74
2023/09/19 11:04:47;;;;;;;10.98;4.35;;;27.90;51.20;;;;;;7403590;19;19994;-75
2023/09/19 11:07:17;;;;;;;12.52;3.78;;;27.40;52.60;;;;;;7402263;19;20207;-73
2023/09/19 11:09:53;;;;;;;8.48;3.80;;;28.00;51.30;;;;;;7403879;19;20342;-72
2023/09/19 11:12:40;;;;;;;13.35;4.45;;;27.50;51.00;;;;;;7401585;19;19938;-73
2023/09/19 11:15:08;;;;;;;17.50;3.30;;;28.40;46.60;;;;;;7398120;19;20257;-74
2023/09/19 11:17:41;;;;;;;12.43;3.85;;;29.10;44.70;;;;;;7404108;19;19910;-73
2023/09/19 11:22:51;;;;;;;7.00;3.22;;;29.80;43.20;;;;;;7404310;19;19948;-73
2023/09/19 11:25:40;;;;;;;8.93;3.33;;;29.50;42.90;;;;;;7398944;19;19922;-73
2023/09/19 11:28:06;;;;;;;12.20;4.00;;;28.80;41.70;;;;;;7401220;19;19934;-72
2023/09/19 11:30:33;;;;;;;5.28;2.72;;;29.00;42.50;;;;;;7401464;19;19947;-75
2023/09/19 11:33:28;;;;;;;11.30;3.67;;;27.90;41.10;;;;;;7402241;19;19922;-73
2023/09/19 11:36:04;;;;;;;10.52;3.78;;;28.60;42.10;;;;;;7400868;19;20521;-73
2023/09/19 11:38:45;;;;;;;10.05;3.25;;;28.70;42.50;;;;;;7399301;19;19939;-73
2023/09/19 11:41:20;;;;;;;10.10;4.15;;;29.20;41.20;;;;;;7378427;19;19918;-74
2023/09/19 11:43:48;;;;;;;9.65;4.05;;;28.80;42.60;;;;;;7380972;19;19922;-78
2023/09/19 11:46:21;;;;;;;8.32;3.20;;;28.50;45.20;;;;;;7367284;19;19933;-75
2023/09/19 11:48:49;;;;;;;5.78;2.60;;;28.30;46.30;;;;;;7378561;19;19931;-75
2023/09/19 11:51:28;;;;;;;6.45;3.53;;;28.00;46.60;;;;;;7370712;19;19911;-75
2023/09/19 11:53:56;;;;;;;7.55;3.05;;;28.50;47.90;;;;;;7373219;19;19929;-74
2023/09/19 11:56:25;;;;;;;7.97;3.42;;;28.20;49.30;;;;;;7377054;19;20433;-74
2023/09/19 11:58:56;;;;;;;6.38;3.13;;;28.10;49.90;;;;;;7371215;19;19922;-74
2023/09/19 12:01:32;;;;;;;7.30;3.20;;;27.70;51.60;;;;;;7373432;19;20378;-76
2023/09/19 12:04:00;;;;;;;9.52;3.20;;;27.30;53.50;;;;;;7375612;19;19910;-75
2023/09/19 12:06:27;;;;;;;6.80;2.92;;;27.40;53.50;;;;;;7374798;19;19918;-75
2023/09/19 12:08:59;;;;;;;7.72;3.58;;;27.40;53.50;;;;;;7365229;19;20372;-75
2023/09/19 12:11:33;;;;;;;6.43;2.88;;;27.40;54.20;;;;;;7367220;19;19931;-74
2023/09/19 12:14:00;;;;;;;9.00;3.88;;;27.40;50.90;;;;;;7378623;19;19962;-74
2023/09/19 12:16:30;;;;;;;8.57;2.83;;;27.70;49.90;;;;;;7377331;19;19914;-74
2023/09/19 12:18:57;;;;;;;8.18;3.67;;;27.90;48.70;;;;;;7371387;19;19978;-75
2023/09/19 12:21:36;;;;;;;7.20;3.38;;;27.60;49.70;;;;;;7381011;19;19919;-74
2023/09/19 12:24:16;;;;;;;7.88;3.20;;;27.10;51.10;;;;;;7376903;19;19940;-75
2023/09/19 12:26:45;;;;;;;11.13;3.13;;;27.00;52.00;;;;;;7372129;19;19915;-75
2023/09/19 12:29:20;;;;;;;7.47;3.47;;;27.30;51.00;;;;;;7374191;19;20630;-74
2023/09/19 12:31:51;;;;;;;7.95;4.28;;;27.50;50.40;;;;;;7368620;19;19922;-75
2023/09/19 12:34:21;;;;;;;7.10;3.08;;;27.40;51.00;;;;;;7370434;19;19922;-74
2023/09/19 12:36:48;;;;;;;8.13;3.15;;;27.70;51.60;;;;;;7397692;19;19946;-75
2023/09/19 12:39:25;;;;;;;9.25;3.47;;;28.20;49.90;;;;;;7377505;19;19910;-74
2023/09/19 12:41:53;;;;;;;11.07;3.67;;;28.00;49.40;;;;;;7371816;19;19923;-75
2023/09/19 12:44:19;;;;;;;7.70;3.10;;;27.70;49.30;;;;;;7378067;19;19922;-74
2023/09/19 12:46:45;;;;;;;7.05;2.80;;;27.80;49.60;;;;;;7370392;19;19910;-74
2023/09/19 12:49:18;;;;;;;8.07;3.03;;;27.70;48.50;;;;;;7375783;19;19941;-75
2023/09/19 12:51:48;;;;;;;8.88;3.15;;;27.40;50.00;;;;;;7396816;19;19934;-75
2023/09/19 12:54:15;;;;;;;8.23;2.85;;;27.40;51.40;;;;;;7395451;19;19918;-75
2023/09/19 12:56:47;;;;;;;8.32;3.17;;;26.60;53.50;;;;;;7396330;19;19915;-75
2023/09/19 12:59:14;;;;;;;7.88;3.47;;;26.20;54.90;;;;;;7390137;19;19981;-75
2023/09/19 13:01:46;;;;;;;9.10;4.45;;;26.30;55.60;;;;;;7369503;19;19925;-76
2023/09/19 13:04:12;;;;;;;8.73;2.80;;;26.50;55.40;;;;;;7368376;19;19910;-74
2023/09/19 13:06:43;;;;;;;9.50;3.33;;;26.60;55.50;;;;;;7372014;19;19926;-75